sensor_id;sensor_type;location;lat;lon;timestamp;P1;durP1;ratioP1;P2;durP2;ratioP2
41568;SDS011;27283;52.504;13.358;2022-11-14T00:00:29;132.52;;;46.85;;
41568;SDS011;27283;52.504;13.358;2022-11-14T00:03:11;129.65;;;43.92;;
41568;SDS011;27283;52.504;13.358;2022-11-14T00:05:43;122.70;;;46.25;;
41568;SDS011;27283;52.504;13.358;2022-11-14T00:08:18;118.75;;;44.88;;
41568;SDS011;27283;52.504;13.358;2022-11-14T00:10:52;136.10;;;46.70;;
41568;SDS011;27283;52.504;13.358;2022-11-14T00:13:23;135.50;;;47.25;;
41568;SDS011;27283;52.504;13.358;2022-11-14T00:15:57;134.40;;;47.70;;
41568;SDS011;27283;52.504;13.358;2022-11-14T00:18:29;133.00;;;46.25;;
41568;SDS011;27283;52.504;13.358;2022-11-14T00:21:02;132.80;;;46.33;;
41568;SDS011;27283;52.504;13.358;2022-11-14T00:23:34;132.85;;;47.25;;
41568;SDS011;27283;52.504;13.358;2022-11-14T00:26:05;132.02;;;47.60;;
41568;SDS011;27283;52.504;13.358;2022-11-14T00:28:37;130.93;;;46.60;;
41568;SDS011;27283;52.504;13.358;2022-11-14T00:31:11;137.80;;;46.88;;
41568;SDS011;27283;52.504;13.358;2022-11-14T00:33:44;134.50;;;48.30;;
41568;SDS011;27283;52.504;13.358;2022-11-14T00:36:16;141.68;;;47.50;;
41568;SDS011;27283;52.504;13.358;2022-11-14T00:38:51;136.75;;;45.47;;
41568;SDS011;27283;52.504;13.358;2022-11-14T00:41:24;133.95;;;48.13;;
41568;SDS011;27283;52.504;13.358;2022-11-14T00:43:57;138.02;;;50.17;;
41568;SDS011;27283;52.504;13.358;2022-11-14T00:46:31;138.43;;;46.80;;
41568;SDS011;27283;52.504;13.358;2022-11-14T00:49:04;137.18;;;48.58;;
41568;SDS011;27283;52.504;13.358;2022-11-14T00:51:35;139.80;;;45.67;;
41568;SDS011;27283;52.504;13.358;2022-11-14T00:54:10;143.68;;;47.90;;
41568;SDS011;27283;52.504;13.358;2022-11-14T00:56:45;138.63;;;48.72;;
41568;SDS011;27283;52.504;13.358;2022-11-14T00:59:18;147.52;;;48.63;;
41568;SDS011;27283;52.504;13.358;2022-11-14T01:01:53;155.73;;;50.13;;
41568;SDS011;27283;52.504;13.358;2022-11-14T01:04:25;149.95;;;50.33;;
41568;SDS011;27283;52.504;13.358;2022-11-14T01:06:57;144.23;;;48.97;;
41568;SDS011;27283;52.504;13.358;2022-11-14T01:09:29;154.07;;;48.63;;
41568;SDS011;27283;52.504;13.358;2022-11-14T01:12:01;148.45;;;46.22;;
41568;SDS011;27283;52.504;13.358;2022-11-14T01:14:34;147.98;;;49.05;;
41568;SDS011;27283;52.504;13.358;2022-11-14T01:17:08;154.02;;;50.65;;
41568;SDS011;27283;52.504;13.358;2022-11-14T01:19:41;155.18;;;51.33;;
41568;SDS011;27283;52.504;13.358;2022-11-14T01:22:13;158.82;;;52.10;;
41568;SDS011;27283;52.504;13.358;2022-11-14T01:24:44;155.98;;;50.28;;
41568;SDS011;27283;52.504;13.358;2022-11-14T01:27:16;157.27;;;53.25;;
41568;SDS011;27283;52.504;13.358;2022-11-14T01:29:51;160.30;;;51.15;;
41568;SDS011;27283;52.504;13.358;2022-11-14T01:32:25;167.32;;;53.25;;
41568;SDS011;27283;52.504;13.358;2022-11-14T01:34:57;165.82;;;52.42;;
41568;SDS011;27283;52.504;13.358;2022-11-14T01:37:29;166.88;;;53.83;;
41568;SDS011;27283;52.504;13.358;2022-11-14T01:40:01;163.55;;;53.15;;
41568;SDS011;27283;52.504;13.358;2022-11-14T01:42:34;171.57;;;53.03;;
41568;SDS011;27283;52.504;13.358;2022-11-14T01:48:11;161.90;;;51.45;;
41568;SDS011;27283;52.504;13.358;2022-11-14T01:50:52;164.70;;;51.75;;
41568;SDS011;27283;52.504;13.358;2022-11-14T01:53:27;164.57;;;53.33;;
41568;SDS011;27283;52.504;13.358;2022-11-14T01:56:00;171.15;;;52.53;;
41568;SDS011;27283;52.504;13.358;2022-11-14T01:58:35;171.38;;;53.08;;
41568;SDS011;27283;52.504;13.358;2022-11-14T02:01:10;170.80;;;50.58;;
41568;SDS011;27283;52.504;13.358;2022-11-14T02:03:46;172.88;;;52.67;;
41568;SDS011;27283;52.504;13.358;2022-11-14T02:06:23;171.07;;;54.05;;
41568;SDS011;27283;52.504;13.358;2022-11-14T02:08:58;177.77;;;52.72;;
41568;SDS011;27283;52.504;13.358;2022-11-14T02:11:34;169.02;;;49.05;;
41568;SDS011;27283;52.504;13.358;2022-11-14T02:14:08;170.02;;;52.22;;
41568;SDS011;27283;52.504;13.358;2022-11-14T02:16:40;167.65;;;52.53;;
41568;SDS011;27283;52.504;13.358;2022-11-14T02:19:48;174.85;;;50.22;;
41568;SDS011;27283;52.504;13.358;2022-11-14T02:22:23;175.07;;;52.97;;
41568;SDS011;27283;52.504;13.358;2022-11-14T02:24:54;173.40;;;53.42;;
41568;SDS011;27283;52.504;13.358;2022-11-14T02:27:26;172.57;;;53.58;;
41568;SDS011;27283;52.504;13.358;2022-11-14T02:30:02;173.57;;;48.00;;
41568;SDS011;27283;52.504;13.358;2022-11-14T02:32:34;175.60;;;53.13;;
41568;SDS011;27283;52.504;13.358;2022-11-14T02:35:25;176.52;;;53.53;;
41568;SDS011;27283;52.504;13.358;2022-11-14T02:37:59;173.57;;;51.28;;
41568;SDS011;27283;52.504;13.358;2022-11-14T02:40:30;169.13;;;50.33;;
41568;SDS011;27283;52.504;13.358;2022-11-14T02:43:01;168.05;;;49.25;;
41568;SDS011;27283;52.504;13.358;2022-11-14T02:45:32;164.75;;;51.60;;
41568;SDS011;27283;52.504;13.358;2022-11-14T02:48:04;180.90;;;52.33;;
41568;SDS011;27283;52.504;13.358;2022-11-14T02:50:35;179.85;;;53.55;;
41568;SDS011;27283;52.504;13.358;2022-11-14T02:53:09;167.52;;;50.72;;
41568;SDS011;27283;52.504;13.358;2022-11-14T02:55:40;153.07;;;47.67;;
41568;SDS011;27283;52.504;13.358;2022-11-14T02:58:11;156.30;;;49.35;;
41568;SDS011;27283;52.504;13.358;2022-11-14T03:00:42;157.60;;;50.08;;
41568;SDS011;27283;52.504;13.358;2022-11-14T03:03:33;166.35;;;50.85;;
41568;SDS011;27283;52.504;13.358;2022-11-14T03:06:04;163.55;;;49.80;;
41568;SDS011;27283;52.504;13.358;2022-11-14T03:08:39;149.50;;;47.25;;
41568;SDS011;27283;52.504;13.358;2022-11-14T03:11:09;152.65;;;48.83;;
41568;SDS011;27283;52.504;13.358;2022-11-14T03:13:41;157.95;;;48.72;;
41568;SDS011;27283;52.504;13.358;2022-11-14T03:16:12;159.45;;;47.78;;
41568;SDS011;27283;52.504;13.358;2022-11-14T03:18:43;157.13;;;48.55;;
41568;SDS011;27283;52.504;13.358;2022-11-14T03:21:16;174.65;;;49.42;;
41568;SDS011;27283;52.504;13.358;2022-11-14T03:23:51;150.50;;;45.70;;
41568;SDS011;27283;52.504;13.358;2022-11-14T03:26:23;157.07;;;48.53;;
41568;SDS011;27283;52.504;13.358;2022-11-14T03:28:54;156.48;;;47.72;;
41568;SDS011;27283;52.504;13.358;2022-11-14T03:31:25;158.07;;;49.10;;
41568;SDS011;27283;52.504;13.358;2022-11-14T03:33:56;160.60;;;48.60;;
41568;SDS011;27283;52.504;13.358;2022-11-14T03:36:27;153.95;;;47.42;;
41568;SDS011;27283;52.504;13.358;2022-11-14T03:39:02;165.57;;;48.70;;
41568;SDS011;27283;52.504;13.358;2022-11-14T03:41:33;161.80;;;48.35;;
41568;SDS011;27283;52.504;13.358;2022-11-14T03:44:04;157.50;;;46.40;;
41568;SDS011;27283;52.504;13.358;2022-11-14T03:46:35;163.38;;;46.97;;
41568;SDS011;27283;52.504;13.358;2022-11-14T03:49:07;171.32;;;48.53;;
41568;SDS011;27283;52.504;13.358;2022-11-14T03:51:37;147.07;;;43.80;;
41568;SDS011;27283;52.504;13.358;2022-11-14T03:54:11;159.93;;;47.75;;
41568;SDS011;27283;52.504;13.358;2022-11-14T03:56:42;151.77;;;46.80;;
41568;SDS011;27283;52.504;13.358;2022-11-14T03:59:13;159.70;;;49.58;;
41568;SDS011;27283;52.504;13.358;2022-11-14T04:01:44;154.02;;;48.30;;
41568;SDS011;27283;52.504;13.358;2022-11-14T04:04:15;159.60;;;46.42;;
41568;SDS011;27283;52.504;13.358;2022-11-14T04:06:46;161.60;;;49.95;;
41568;SDS011;27283;52.504;13.358;2022-11-14T04:09:20;163.32;;;48.25;;
41568;SDS011;27283;52.504;13.358;2022-11-14T04:11:51;175.77;;;49.47;;
41568;SDS011;27283;52.504;13.358;2022-11-14T04:14:23;161.18;;;49.20;;
41568;SDS011;27283;52.504;13.358;2022-11-14T04:16:54;164.27;;;49.47;;
41568;SDS011;27283;52.504;13.358;2022-11-14T04:19:26;162.23;;;49.15;;
41568;SDS011;27283;52.504;13.358;2022-11-14T04:21:57;158.43;;;46.92;;
41568;SDS011;27283;52.504;13.358;2022-11-14T04:24:31;171.57;;;47.38;;
41568;SDS011;27283;52.504;13.358;2022-11-14T04:27:02;166.77;;;48.60;;
41568;SDS011;27283;52.504;13.358;2022-11-14T04:29:34;171.23;;;49.30;;
41568;SDS011;27283;52.504;13.358;2022-11-14T04:32:04;159.93;;;45.67;;
41568;SDS011;27283;52.504;13.358;2022-11-14T04:34:36;167.15;;;47.88;;
41568;SDS011;27283;52.504;13.358;2022-11-14T04:37:07;177.00;;;49.97;;
41568;SDS011;27283;52.504;13.358;2022-11-14T04:39:40;177.00;;;50.47;;
41568;SDS011;27283;52.504;13.358;2022-11-14T04:42:11;181.68;;;47.90;;
41568;SDS011;27283;52.504;13.358;2022-11-14T04:44:43;174.40;;;51.42;;
41568;SDS011;27283;52.504;13.358;2022-11-14T04:47:14;184.65;;;50.97;;
41568;SDS011;27283;52.504;13.358;2022-11-14T04:49:45;178.20;;;50.00;;
41568;SDS011;27283;52.504;13.358;2022-11-14T04:52:16;170.95;;;49.60;;
41568;SDS011;27283;52.504;13.358;2022-11-14T04:54:50;177.02;;;50.40;;
41568;SDS011;27283;52.504;13.358;2022-11-14T04:57:21;169.35;;;48.92;;
41568;SDS011;27283;52.504;13.358;2022-11-14T04:59:52;175.25;;;49.33;;
41568;SDS011;27283;52.504;13.358;2022-11-14T05:02:23;183.02;;;50.05;;
41568;SDS011;27283;52.504;13.358;2022-11-14T05:04:54;186.85;;;50.83;;
41568;SDS011;27283;52.504;13.358;2022-11-14T05:07:25;177.25;;;50.13;;
41568;SDS011;27283;52.504;13.358;2022-11-14T05:09:59;171.93;;;49.03;;
41568;SDS011;27283;52.504;13.358;2022-11-14T05:12:30;183.20;;;49.78;;
41568;SDS011;27283;52.504;13.358;2022-11-14T05:15:02;173.77;;;49.60;;
41568;SDS011;27283;52.504;13.358;2022-11-14T05:17:33;181.57;;;49.65;;
41568;SDS011;27283;52.504;13.358;2022-11-14T05:20:05;168.25;;;47.83;;
41568;SDS011;27283;52.504;13.358;2022-11-14T05:22:36;177.30;;;50.00;;
41568;SDS011;27283;52.504;13.358;2022-11-14T05:25:11;182.98;;;48.42;;
41568;SDS011;27283;52.504;13.358;2022-11-14T05:27:42;188.18;;;49.95;;
41568;SDS011;27283;52.504;13.358;2022-11-14T05:30:13;188.40;;;50.10;;
41568;SDS011;27283;52.504;13.358;2022-11-14T05:32:45;183.55;;;49.35;;
41568;SDS011;27283;52.504;13.358;2022-11-14T05:35:16;179.95;;;50.00;;
41568;SDS011;27283;52.504;13.358;2022-11-14T05:37:47;184.27;;;49.30;;
41568;SDS011;27283;52.504;13.358;2022-11-14T05:40:28;170.57;;;48.92;;
41568;SDS011;27283;52.504;13.358;2022-11-14T05:42:59;172.95;;;50.40;;
41568;SDS011;27283;52.504;13.358;2022-11-14T05:45:30;171.02;;;48.45;;
41568;SDS011;27283;52.504;13.358;2022-11-14T05:48:01;189.85;;;50.60;;
41568;SDS011;27283;52.504;13.358;2022-11-14T05:50:33;181.85;;;49.75;;
41568;SDS011;27283;52.504;13.358;2022-11-14T05:53:03;183.55;;;50.03;;
41568;SDS011;27283;52.504;13.358;2022-11-14T05:55:37;192.57;;;51.15;;
41568;SDS011;27283;52.504;13.358;2022-11-14T05:58:08;175.98;;;50.33;;
41568;SDS011;27283;52.504;13.358;2022-11-14T06:00:40;170.25;;;49.03;;
41568;SDS011;27283;52.504;13.358;2022-11-14T06:03:20;177.82;;;49.75;;
41568;SDS011;27283;52.504;13.358;2022-11-14T06:05:52;175.88;;;49.40;;
41568;SDS011;27283;52.504;13.358;2022-11-14T06:08:23;169.38;;;48.88;;
41568;SDS011;27283;52.504;13.358;2022-11-14T06:10:58;176.13;;;48.65;;
41568;SDS011;27283;52.504;13.358;2022-11-14T06:13:32;168.43;;;49.72;;
41568;SDS011;27283;52.504;13.358;2022-11-14T06:16:08;178.20;;;49.28;;
41568;SDS011;27283;52.504;13.358;2022-11-14T06:18:40;181.40;;;50.03;;
41568;SDS011;27283;52.504;13.358;2022-11-14T06:21:13;179.95;;;50.55;;
41568;SDS011;27283;52.504;13.358;2022-11-14T06:23:46;164.98;;;45.78;;
41568;SDS011;27283;52.504;13.358;2022-11-14T06:26:22;175.05;;;48.53;;
41568;SDS011;27283;52.504;13.358;2022-11-14T06:28:57;173.23;;;48.47;;
41568;SDS011;27283;52.504;13.358;2022-11-14T06:31:29;177.40;;;49.85;;
41568;SDS011;27283;52.504;13.358;2022-11-14T06:34:03;178.05;;;48.90;;
41568;SDS011;27283;52.504;13.358;2022-11-14T06:36:35;183.30;;;51.83;;
41568;SDS011;27283;52.504;13.358;2022-11-14T06:39:07;187.20;;;49.75;;
41568;SDS011;27283;52.504;13.358;2022-11-14T06:41:41;186.25;;;51.53;;
41568;SDS011;27283;52.504;13.358;2022-11-14T06:44:12;180.50;;;50.50;;
41568;SDS011;27283;52.504;13.358;2022-11-14T06:46:45;170.55;;;46.13;;
41568;SDS011;27283;52.504;13.358;2022-11-14T06:49:16;184.95;;;49.55;;
41568;SDS011;27283;52.504;13.358;2022-11-14T06:51:48;174.98;;;47.33;;
41568;SDS011;27283;52.504;13.358;2022-11-14T06:54:20;173.25;;;48.83;;
41568;SDS011;27283;52.504;13.358;2022-11-14T06:56:54;177.95;;;49.15;;
41568;SDS011;27283;52.504;13.358;2022-11-14T06:59:26;171.13;;;48.10;;
41568;SDS011;27283;52.504;13.358;2022-11-14T07:01:58;166.00;;;46.92;;
41568;SDS011;27283;52.504;13.358;2022-11-14T07:04:29;177.57;;;48.97;;
41568;SDS011;27283;52.504;13.358;2022-11-14T07:07:01;184.23;;;50.58;;
41568;SDS011;27283;52.504;13.358;2022-11-14T07:09:32;176.48;;;49.25;;
41568;SDS011;27283;52.504;13.358;2022-11-14T07:12:08;174.52;;;47.42;;
41568;SDS011;27283;52.504;13.358;2022-11-14T07:14:39;175.43;;;48.13;;
41568;SDS011;27283;52.504;13.358;2022-11-14T07:17:11;170.77;;;49.15;;
41568;SDS011;27283;52.504;13.358;2022-11-14T07:19:42;185.27;;;47.90;;
41568;SDS011;27283;52.504;13.358;2022-11-14T07:22:13;168.63;;;49.47;;
41568;SDS011;27283;52.504;13.358;2022-11-14T07:24:44;162.48;;;45.42;;
41568;SDS011;27283;52.504;13.358;2022-11-14T07:27:18;170.82;;;47.92;;
41568;SDS011;27283;52.504;13.358;2022-11-14T07:29:50;163.70;;;46.30;;
41568;SDS011;27283;52.504;13.358;2022-11-14T07:32:21;165.82;;;46.50;;
41568;SDS011;27283;52.504;13.358;2022-11-14T07:34:52;160.85;;;44.88;;
41568;SDS011;27283;52.504;13.358;2022-11-14T07:37:32;160.52;;;46.70;;
41568;SDS011;27283;52.504;13.358;2022-11-14T07:40:04;160.05;;;45.97;;
41568;SDS011;27283;52.504;13.358;2022-11-14T07:42:41;154.77;;;46.70;;
41568;SDS011;27283;52.504;13.358;2022-11-14T07:45:13;151.90;;;43.58;;
41568;SDS011;27283;52.504;13.358;2022-11-14T07:47:45;157.05;;;43.72;;
41568;SDS011;27283;52.504;13.358;2022-11-14T07:50:17;164.85;;;46.85;;
41568;SDS011;27283;52.504;13.358;2022-11-14T07:52:50;156.77;;;46.72;;
41568;SDS011;27283;52.504;13.358;2022-11-14T07:55:23;161.63;;;46.00;;
41568;SDS011;27283;52.504;13.358;2022-11-14T07:58:00;148.00;;;45.30;;
41568;SDS011;27283;52.504;13.358;2022-11-14T08:00:32;151.52;;;45.08;;
41568;SDS011;27283;52.504;13.358;2022-11-14T08:03:05;152.40;;;42.88;;
41568;SDS011;27283;52.504;13.358;2022-11-14T08:05:36;155.73;;;45.47;;
41568;SDS011;27283;52.504;13.358;2022-11-14T08:08:08;161.00;;;45.08;;
41568;SDS011;27283;52.504;13.358;2022-11-14T08:10:39;144.75;;;42.42;;
41568;SDS011;27283;52.504;13.358;2022-11-14T08:13:13;152.43;;;44.00;;
41568;SDS011;27283;52.504;13.358;2022-11-14T08:16:02;152.48;;;43.00;;
41568;SDS011;27283;52.504;13.358;2022-11-14T08:18:40;146.63;;;43.55;;
41568;SDS011;27283;52.504;13.358;2022-11-14T08:21:11;150.43;;;44.15;;
41568;SDS011;27283;52.504;13.358;2022-11-14T08:23:43;142.23;;;43.10;;
41568;SDS011;27283;52.504;13.358;2022-11-14T08:26:14;130.43;;;41.75;;
41568;SDS011;27283;52.504;13.358;2022-11-14T08:28:50;137.65;;;41.40;;
41568;SDS011;27283;52.504;13.358;2022-11-14T08:31:22;132.95;;;41.42;;
41568;SDS011;27283;52.504;13.358;2022-11-14T08:33:54;137.60;;;41.90;;
41568;SDS011;27283;52.504;13.358;2022-11-14T08:36:25;138.95;;;43.00;;
41568;SDS011;27283;52.504;13.358;2022-11-14T08:38:57;134.60;;;42.78;;
41568;SDS011;27283;52.504;13.358;2022-11-14T08:41:29;139.27;;;41.95;;
41568;SDS011;27283;52.504;13.358;2022-11-14T08:44:03;132.18;;;40.38;;
41568;SDS011;27283;52.504;13.358;2022-11-14T08:46:34;135.32;;;42.13;;
41568;SDS011;27283;52.504;13.358;2022-11-14T08:49:06;134.48;;;40.80;;
41568;SDS011;27283;52.504;13.358;2022-11-14T08:51:37;144.90;;;43.58;;
41568;SDS011;27283;52.504;13.358;2022-11-14T08:54:09;136.07;;;41.17;;
41568;SDS011;27283;52.504;13.358;2022-11-14T08:56:40;129.90;;;41.38;;
41568;SDS011;27283;52.504;13.358;2022-11-14T08:59:14;138.55;;;42.35;;
41568;SDS011;27283;52.504;13.358;2022-11-14T09:01:46;138.98;;;42.67;;
41568;SDS011;27283;52.504;13.358;2022-11-14T09:04:17;133.02;;;41.33;;
41568;SDS011;27283;52.504;13.358;2022-11-14T09:06:49;130.18;;;39.58;;
41568;SDS011;27283;52.504;13.358;2022-11-14T09:09:21;127.07;;;39.13;;
41568;SDS011;27283;52.504;13.358;2022-11-14T09:11:53;115.35;;;37.95;;
41568;SDS011;27283;52.504;13.358;2022-11-14T09:14:27;110.20;;;36.38;;
41568;SDS011;27283;52.504;13.358;2022-11-14T09:16:58;118.03;;;38.50;;
41568;SDS011;27283;52.504;13.358;2022-11-14T09:19:33;112.20;;;36.38;;
41568;SDS011;27283;52.504;13.358;2022-11-14T09:22:04;114.78;;;37.80;;
41568;SDS011;27283;52.504;13.358;2022-11-14T09:24:35;122.60;;;38.08;;
41568;SDS011;27283;52.504;13.358;2022-11-14T09:27:06;115.03;;;36.58;;
41568;SDS011;27283;52.504;13.358;2022-11-14T09:29:42;109.72;;;34.53;;
41568;SDS011;27283;52.504;13.358;2022-11-14T09:32:13;102.82;;;34.78;;
41568;SDS011;27283;52.504;13.358;2022-11-14T09:34:45;106.00;;;35.50;;
41568;SDS011;27283;52.504;13.358;2022-11-14T09:37:15;100.80;;;33.63;;
41568;SDS011;27283;52.504;13.358;2022-11-14T09:39:47;97.78;;;32.85;;
41568;SDS011;27283;52.504;13.358;2022-11-14T09:42:21;101.68;;;34.00;;
41568;SDS011;27283;52.504;13.358;2022-11-14T09:45:10;105.90;;;33.95;;
41568;SDS011;27283;52.504;13.358;2022-11-14T09:47:43;108.03;;;36.53;;
41568;SDS011;27283;52.504;13.358;2022-11-14T09:50:17;101.63;;;33.58;;
41568;SDS011;27283;52.504;13.358;2022-11-14T09:52:54;93.25;;;33.85;;
41568;SDS011;27283;52.504;13.358;2022-11-14T09:55:28;98.10;;;34.13;;
41568;SDS011;27283;52.504;13.358;2022-11-14T09:58:03;102.28;;;33.72;;
41568;SDS011;27283;52.504;13.358;2022-11-14T10:00:46;98.43;;;33.78;;
41568;SDS011;27283;52.504;13.358;2022-11-14T10:03:38;91.05;;;32.92;;
41568;SDS011;27283;52.504;13.358;2022-11-14T10:06:23;95.68;;;32.15;;
41568;SDS011;27283;52.504;13.358;2022-11-14T10:09:11;84.03;;;31.83;;
41568;SDS011;27283;52.504;13.358;2022-11-14T10:12:09;97.75;;;34.13;;
41568;SDS011;27283;52.504;13.358;2022-11-14T10:14:54;95.38;;;33.88;;
41568;SDS011;27283;52.504;13.358;2022-11-14T10:17:43;95.90;;;33.25;;
41568;SDS011;27283;52.504;13.358;2022-11-14T10:20:26;97.28;;;33.47;;
41568;SDS011;27283;52.504;13.358;2022-11-14T10:23:05;84.95;;;32.35;;
41568;SDS011;27283;52.504;13.358;2022-11-14T10:25:53;87.22;;;32.97;;
41568;SDS011;27283;52.504;13.358;2022-11-14T10:28:37;87.50;;;30.85;;
41568;SDS011;27283;52.504;13.358;2022-11-14T10:31:19;94.10;;;33.15;;
41568;SDS011;27283;52.504;13.358;2022-11-14T10:34:02;93.25;;;33.40;;
41568;SDS011;27283;52.504;13.358;2022-11-14T10:36:46;90.20;;;32.42;;
41568;SDS011;27283;52.504;13.358;2022-11-14T10:39:28;92.78;;;33.08;;
41568;SDS011;27283;52.504;13.358;2022-11-14T10:42:08;88.93;;;31.67;;
41568;SDS011;27283;52.504;13.358;2022-11-14T10:44:46;89.95;;;32.15;;
41568;SDS011;27283;52.504;13.358;2022-11-14T10:47:21;87.97;;;32.50;;
41568;SDS011;27283;52.504;13.358;2022-11-14T10:49:58;84.10;;;30.88;;
41568;SDS011;27283;52.504;13.358;2022-11-14T10:52:35;86.00;;;31.85;;
41568;SDS011;27283;52.504;13.358;2022-11-14T10:55:13;89.40;;;31.77;;
41568;SDS011;27283;52.504;13.358;2022-11-14T10:57:49;87.45;;;31.75;;
41568;SDS011;27283;52.504;13.358;2022-11-14T11:00:20;88.13;;;31.77;;
41568;SDS011;27283;52.504;13.358;2022-11-14T11:02:54;81.15;;;30.67;;
41568;SDS011;27283;52.504;13.358;2022-11-14T11:05:29;82.40;;;30.65;;
41568;SDS011;27283;52.504;13.358;2022-11-14T11:08:17;82.80;;;31.45;;
41568;SDS011;27283;52.504;13.358;2022-11-14T11:11:11;85.30;;;30.05;;
41568;SDS011;27283;52.504;13.358;2022-11-14T11:13:59;77.78;;;29.30;;
41568;SDS011;27283;52.504;13.358;2022-11-14T11:16:31;80.35;;;30.65;;
41568;SDS011;27283;52.504;13.358;2022-11-14T11:19:12;73.45;;;29.90;;
41568;SDS011;27283;52.504;13.358;2022-11-14T11:21:54;83.78;;;30.77;;
41568;SDS011;27283;52.504;13.358;2022-11-14T11:24:29;80.10;;;30.80;;
41568;SDS011;27283;52.504;13.358;2022-11-14T11:30:01;74.13;;;29.23;;
41568;SDS011;27283;52.504;13.358;2022-11-14T11:32:35;76.60;;;28.20;;
41568;SDS011;27283;52.504;13.358;2022-11-14T11:35:10;72.15;;;29.17;;
41568;SDS011;27283;52.504;13.358;2022-11-14T11:37:47;71.00;;;28.25;;
41568;SDS011;27283;52.504;13.358;2022-11-14T11:40:24;71.10;;;28.23;;
41568;SDS011;27283;52.504;13.358;2022-11-14T11:42:58;72.13;;;28.40;;
41568;SDS011;27283;52.504;13.358;2022-11-14T11:45:53;73.38;;;28.52;;
41568;SDS011;27283;52.504;13.358;2022-11-14T11:48:28;72.93;;;28.77;;
41568;SDS011;27283;52.504;13.358;2022-11-14T11:51:09;72.13;;;28.55;;
41568;SDS011;27283;52.504;13.358;2022-11-14T11:53:49;69.75;;;28.63;;
41568;SDS011;27283;52.504;13.358;2022-11-14T11:56:29;73.32;;;29.25;;
41568;SDS011;27283;52.504;13.358;2022-11-14T11:59:04;67.57;;;26.75;;
41568;SDS011;27283;52.504;13.358;2022-11-14T12:01:49;67.85;;;28.13;;
41568;SDS011;27283;52.504;13.358;2022-11-14T12:04:22;68.13;;;28.27;;
41568;SDS011;27283;52.504;13.358;2022-11-14T12:06:54;73.90;;;29.42;;
41568;SDS011;27283;52.504;13.358;2022-11-14T12:09:35;67.97;;;28.88;;
41568;SDS011;27283;52.504;13.358;2022-11-14T12:12:31;70.38;;;28.63;;
41568;SDS011;27283;52.504;13.358;2022-11-14T12:15:20;61.92;;;26.55;;
41568;SDS011;27283;52.504;13.358;2022-11-14T12:20:55;65.70;;;26.88;;
41568;SDS011;27283;52.504;13.358;2022-11-14T12:24:00;60.78;;;26.42;;
41568;SDS011;27283;52.504;13.358;2022-11-14T12:27:01;66.65;;;28.00;;
41568;SDS011;27283;52.504;13.358;2022-11-14T12:29:45;63.22;;;26.40;;
41568;SDS011;27283;52.504;13.358;2022-11-14T12:32:27;63.80;;;26.70;;
41568;SDS011;27283;52.504;13.358;2022-11-14T12:35:02;58.70;;;26.00;;
41568;SDS011;27283;52.504;13.358;2022-11-14T12:37:42;62.08;;;26.65;;
41568;SDS011;27283;52.504;13.358;2022-11-14T12:40:23;58.10;;;25.40;;
41568;SDS011;27283;52.504;13.358;2022-11-14T12:43:02;59.53;;;25.48;;
41568;SDS011;27283;52.504;13.358;2022-11-14T12:48:33;55.63;;;23.60;;
41568;SDS011;27283;52.504;13.358;2022-11-14T12:54:08;57.15;;;25.33;;
41568;SDS011;27283;52.504;13.358;2022-11-14T12:57:15;57.70;;;25.27;;
41568;SDS011;27283;52.504;13.358;2022-11-14T13:00:09;54.20;;;24.80;;
41568;SDS011;27283;52.504;13.358;2022-11-14T13:05:52;52.80;;;25.02;;
41568;SDS011;27283;52.504;13.358;2022-11-14T13:08:35;57.30;;;24.98;;
41568;SDS011;27283;52.504;13.358;2022-11-14T13:11:32;53.28;;;24.15;;
41568;SDS011;27283;52.504;13.358;2022-11-14T13:14:18;52.25;;;24.30;;
41568;SDS011;27283;52.504;13.358;2022-11-14T13:17:15;49.78;;;23.30;;
41568;SDS011;27283;52.504;13.358;2022-11-14T13:35:47;51.22;;;24.10;;
41568;SDS011;27283;52.504;13.358;2022-11-14T13:41:38;51.22;;;22.63;;
41568;SDS011;27283;52.504;13.358;2022-11-14T13:44:55;53.47;;;23.52;;
41568;SDS011;27283;52.504;13.358;2022-11-14T13:47:49;51.63;;;24.10;;
41568;SDS011;27283;52.504;13.358;2022-11-14T13:50:39;51.25;;;23.98;;
41568;SDS011;27283;52.504;13.358;2022-11-14T13:53:26;51.03;;;22.55;;
41568;SDS011;27283;52.504;13.358;2022-11-14T13:56:05;47.22;;;22.73;;
41568;SDS011;27283;52.504;13.358;2022-11-14T14:02:01;50.90;;;23.23;;
41568;SDS011;27283;52.504;13.358;2022-11-14T14:23:35;53.38;;;23.42;;
41568;SDS011;27283;52.504;13.358;2022-11-14T14:27:04;49.13;;;22.85;;
41568;SDS011;27283;52.504;13.358;2022-11-14T14:34:45;53.47;;;24.30;;
41568;SDS011;27283;52.504;13.358;2022-11-14T14:37:28;49.08;;;22.08;;
41568;SDS011;27283;52.504;13.358;2022-11-14T14:47:26;48.47;;;22.80;;
41568;SDS011;27283;52.504;13.358;2022-11-14T14:50:12;53.65;;;24.05;;
41568;SDS011;27283;52.504;13.358;2022-11-14T14:52:54;53.45;;;26.65;;
41568;SDS011;27283;52.504;13.358;2022-11-14T14:55:27;48.90;;;23.88;;
41568;SDS011;27283;52.504;13.358;2022-11-14T14:58:13;56.25;;;26.00;;
41568;SDS011;27283;52.504;13.358;2022-11-14T15:01:00;48.45;;;23.83;;
41568;SDS011;27283;52.504;13.358;2022-11-14T15:03:34;51.15;;;24.23;;
41568;SDS011;27283;52.504;13.358;2022-11-14T15:06:16;49.88;;;24.25;;
41568;SDS011;27283;52.504;13.358;2022-11-14T15:08:57;48.58;;;23.10;;
41568;SDS011;27283;52.504;13.358;2022-11-14T15:11:32;48.72;;;23.70;;
41568;SDS011;27283;52.504;13.358;2022-11-14T15:14:04;49.67;;;24.10;;
41568;SDS011;27283;52.504;13.358;2022-11-14T15:16:39;50.40;;;24.60;;
41568;SDS011;27283;52.504;13.358;2022-11-14T15:19:12;50.55;;;22.83;;
41568;SDS011;27283;52.504;13.358;2022-11-14T15:21:55;48.83;;;24.40;;
41568;SDS011;27283;52.504;13.358;2022-11-14T15:24:32;50.40;;;24.10;;
41568;SDS011;27283;52.504;13.358;2022-11-14T15:27:04;50.08;;;24.08;;
41568;SDS011;27283;52.504;13.358;2022-11-14T15:29:43;54.15;;;22.85;;
41568;SDS011;27283;52.504;13.358;2022-11-14T15:32:19;50.65;;;24.20;;
41568;SDS011;27283;52.504;13.358;2022-11-14T15:41:19;52.95;;;26.27;;
41568;SDS011;27283;52.504;13.358;2022-11-14T15:43:52;56.15;;;25.63;;
41568;SDS011;27283;52.504;13.358;2022-11-14T15:49:22;52.50;;;26.10;;
41568;SDS011;27283;52.504;13.358;2022-11-14T15:51:56;53.40;;;25.98;;
41568;SDS011;27283;52.504;13.358;2022-11-14T15:54:30;53.22;;;25.20;;
41568;SDS011;27283;52.504;13.358;2022-11-14T15:57:10;51.17;;;25.40;;
41568;SDS011;27283;52.504;13.358;2022-11-14T15:59:44;51.80;;;25.48;;
41568;SDS011;27283;52.504;13.358;2022-11-14T16:02:15;52.85;;;25.83;;
41568;SDS011;27283;52.504;13.358;2022-11-14T16:04:52;60.65;;;28.85;;
41568;SDS011;27283;52.504;13.358;2022-11-14T16:07:25;59.90;;;27.52;;
41568;SDS011;27283;52.504;13.358;2022-11-14T16:09:57;57.78;;;27.48;;